Time;durP1;ratioP1;P1;durP2;ratioP2;P2;SDS_P1;SDS_P2;PMS_P1;PMS_P2;Temp;Humidity;BMP_temperature;BMP_pressure;BME280_temperature;BME280_humidity;BME280_pressure;Samples;Min_cycle;Max_cycle;Signal;HPM_P1;HPM_P2
2022/03/30 00:00:52;;;;;;;20.67;17.77;;;;;;;6.82;100.00;95307.81;5030139;28;20460;-75
2022/03/30 00:03:19;;;;;;;20.03;16.60;;;;;;;7.04;100.00;95357.28;4994333;28;20491;-76
2022/03/30 00:05:45;;;;;;;32.63;18.90;;;;;;;7.06;100.00;95360.34;5043418;28;20457;-75
2022/03/30 00:08:13;;;;;;;19.17;15.37;;;;;;;6.82;100.00;95334.06;5011784;28;20471;-74
2022/03/30 00:10:40;;;;;;;22.10;15.60;;;;;;;6.73;100.00;95312.38;5044891;28;20442;-75
2022/03/30 00:13:08;;;;;;;24.57;17.60;;;;;;;6.76;100.00;95316.97;5021783;28;20800;-75
2022/03/30 00:15:35;;;;;;;28.83;20.30;;;;;;;6.94;100.00;95338.56;4994121;28;21009;-75
2022/03/30 00:18:02;;;;;;;29.20;18.10;;;;;;;6.98;100.00;95318.44;5010546;28;20452;-75
2022/03/30 00:20:30;;;;;;;28.20;16.67;;;;;;;7.25;100.00;95343.31;5012416;28;20516;-75
2022/03/30 00:22:57;;;;;;;24.90;14.17;;;;;;;7.24;100.00;95339.13;5029592;28;20441;-75
2022/03/30 00:25:23;;;;;;;24.40;15.40;;;;;;;7.01;100.00;95291.50;5027462;28;20980;-75
2022/03/30 00:27:50;;;;;;;24.83;16.97;;;;;;;7.07;100.00;95330.34;5010269;28;20441;-75
2022/03/30 00:30:18;;;;;;;28.10;15.77;;;;;;;7.05;100.00;95303.63;5024641;28;20451;-75
2022/03/30 00:32:46;;;;;;;25.50;16.60;;;;;;;6.98;100.00;95273.75;5009985;28;20496;-76
2022/03/30 00:35:13;;;;;;;23.60;16.13;;;;;;;7.18;100.00;95295.75;5014292;28;20449;-75
2022/03/30 00:37:40;;;;;;;20.37;14.33;;;;;;;7.20;100.00;95312.72;5019062;28;20469;-75
2022/03/30 00:40:10;;;;;;;20.37;14.30;;;;;;;7.06;100.00;95315.69;5028397;28;20520;-75
2022/03/30 00:42:37;;;;;;;20.77;14.23;;;;;;;6.79;100.00;95285.56;5018907;28;20529;-75
2022/03/30 00:45:23;;;;;;;26.70;14.67;;;;;;;6.91;100.00;95308.44;5040617;28;20536;-75
2022/03/30 00:47:51;;;;;;;24.10;15.30;;;;;;;6.90;100.00;95301.66;5043736;28;20484;-75
2022/03/30 00:50:21;;;;;;;27.20;18.43;;;;;;;6.78;100.00;95291.13;5050165;28;20483;-75
2022/03/30 00:52:51;;;;;;;29.63;16.93;;;;;;;6.84;100.00;95304.84;5032912;28;20483;-75
2022/03/30 00:55:18;;;;;;;21.03;15.77;;;;;;;6.82;100.00;95286.78;5063319;28;20519;-75
2022/03/30 00:57:46;;;;;;;23.93;13.63;;;;;;;6.88;100.00;95300.47;5016836;28;20445;-75
2022/03/30 01:00:15;;;;;;;25.60;16.53;;;;;;;6.83;100.00;95288.31;5020934;28;20442;-75
2022/03/30 01:02:48;;;;;;;26.67;17.23;;;;;;;6.81;100.00;95286.03;5029417;28;20487;-75
2022/03/30 01:05:16;;;;;;;27.97;15.90;;;;;;;6.79;100.00;95282.94;5029696;28;21015;-75
2022/03/30 01:07:43;;;;;;;26.67;16.77;;;;;;;6.62;100.00;95251.63;5016615;28;20482;-75
2022/03/30 01:10:11;;;;;;;27.27;17.10;;;;;;;6.23;100.00;95196.00;5019702;28;20465;-75
2022/03/30 01:12:39;;;;;;;26.50;15.90;;;;;;;6.65;100.00;95240.47;5039358;28;20448;-74
2022/03/30 01:15:12;;;;;;;29.70;18.37;;;;;;;6.99;100.00;95264.78;5042704;28;20479;-75
2022/03/30 01:17:39;;;;;;;29.67;15.53;;;;;;;6.81;100.00;95259.75;5023099;28;20536;-75
2022/03/30 01:20:07;;;;;;;29.93;17.23;;;;;;;6.65;100.00;95266.72;5023802;28;20917;-75
2022/03/30 01:22:34;;;;;;;29.33;16.97;;;;;;;6.67;100.00;95233.00;5024320;28;20424;-75
2022/03/30 01:25:02;;;;;;;29.90;16.83;;;;;;;6.66;100.00;95225.47;5023079;28;20439;-75
2022/03/30 01:27:28;;;;;;;26.87;16.60;;;;;;;6.71;100.00;95246.28;5033289;28;20439;-75
2022/03/30 01:32:41;;;;;;;29.70;15.50;;;;;;;6.86;100.00;95205.44;5021748;28;20469;-75
2022/03/30 01:35:10;;;;;;;30.43;16.63;;;;;;;6.96;100.00;95247.06;5017918;28;20448;-75
2022/03/30 01:37:37;;;;;;;25.57;16.70;;;;;;;6.80;100.00;95208.28;5022665;28;20437;-75
2022/03/30 01:40:06;;;;;;;29.40;17.60;;;;;;;6.75;100.00;95216.38;5000233;28;20469;-75
2022/03/30 01:42:33;;;;;;;26.37;15.80;;;;;;;6.78;100.00;95225.47;5029623;28;20480;-75
2022/03/30 01:45:00;;;;;;;22.63;15.60;;;;;;;6.88;100.00;95229.53;5027607;28;20440;-75
2022/03/30 01:47:27;;;;;;;27.13;18.43;;;;;;;6.69;100.00;95207.22;5034836;28;20464;-75
2022/03/30 01:49:53;;;;;;;24.37;15.23;;;;;;;6.59;100.00;95204.25;5016280;28;20464;-76
2022/03/30 01:52:20;;;;;;;28.67;18.10;;;;;;;6.39;100.00;95184.84;5021051;28;20444;-75
2022/03/30 01:54:47;;;;;;;27.30;18.10;;;;;;;6.48;100.00;95188.16;5024249;28;20438;-75
2022/03/30 01:57:14;;;;;;;21.87;14.57;;;;;;;6.76;100.00;95209.28;5016666;28;20487;-76
2022/03/30 01:59:43;;;;;;;26.30;15.30;;;;;;;6.74;100.00;95206.97;5019463;28;20962;-75
2022/03/30 02:02:11;;;;;;;26.30;16.23;;;;;;;6.84;100.00;95203.16;5020498;28;20491;-75
2022/03/30 02:04:38;;;;;;;28.80;17.57;;;;;;;6.72;100.00;95184.78;5027281;28;20499;-75
2022/03/30 02:07:08;;;;;;;36.60;18.10;;;;;;;6.68;100.00;95165.53;5058240;28;20513;-75
2022/03/30 02:09:35;;;;;;;28.57;18.73;;;;;;;7.06;100.00;95196.66;5025550;28;21020;-75
2022/03/30 02:12:03;;;;;;;29.23;17.60;;;;;;;7.00;100.00;95187.47;5025732;28;21284;-75
2022/03/30 02:14:29;;;;;;;29.27;16.73;;;;;;;6.62;100.00;95153.69;5020000;28;20531;-75
2022/03/30 02:16:56;;;;;;;29.00;16.27;;;;;;;6.63;100.00;95152.59;5018954;28;20580;-75
2022/03/30 02:19:23;;;;;;;30.70;16.60;;;;;;;6.73;100.00;95166.06;5024869;28;20452;-75
2022/03/30 02:21:49;;;;;;;30.90;15.00;;;;;;;6.57;100.00;95143.44;5013460;28;21032;-76
2022/03/30 02:24:16;;;;;;;31.37;17.50;;;;;;;6.58;100.00;95171.97;5024572;28;20429;-75
2022/03/30 02:26:43;;;;;;;29.60;16.97;;;;;;;6.37;100.00;95145.06;5000654;28;20461;-75
2022/03/30 02:29:09;;;;;;;26.57;16.37;;;;;;;6.36;100.00;95146.16;5023977;28;20841;-75
2022/03/30 02:31:36;;;;;;;36.07;17.63;;;;;;;6.53;100.00;95157.19;5026708;28;20439;-76
2022/03/30 02:34:03;;;;;;;30.93;15.70;;;;;;;6.52;100.00;95153.03;5004302;28;20441;-75
2022/03/30 02:36:30;;;;;;;28.67;16.40;;;;;;;6.23;100.00;95132.25;5000175;28;20907;-75
2022/03/30 02:38:56;;;;;;;39.47;20.87;;;;;;;6.47;100.00;95155.13;5024096;28;20441;-75
2022/03/30 02:41:23;;;;;;;45.90;20.40;;;;;;;6.17;100.00;95125.69;5013349;28;20441;-75
2022/03/30 02:43:50;;;;;;;40.97;22.60;;;;;;;5.96;100.00;95114.50;5023398;28;20532;-75
2022/03/30 02:46:17;;;;;;;45.90;20.70;;;;;;;6.00;100.00;95112.75;5024765;28;20550;-75
2022/03/30 02:48:44;;;;;;;39.23;21.57;;;;;;;5.91;100.00;95091.91;5052950;28;20439;-75
2022/03/30 02:51:10;;;;;;;38.10;19.43;;;;;;;6.04;100.00;95122.28;5018359;28;20443;-74
2022/03/30 02:53:37;;;;;;;42.43;20.53;;;;;;;6.30;100.00;95140.34;5023449;28;20480;-75
2022/03/30 02:56:05;;;;;;;30.13;18.70;;;;;;;6.36;100.00;95141.66;5058227;28;20554;-75
2022/03/30 02:58:31;;;;;;;30.10;16.17;;;;;;;6.46;100.00;95143.09;5020107;28;20891;-75
2022/03/30 03:00:58;;;;;;;31.73;17.40;;;;;;;6.47;100.00;95134.13;5029926;28;20795;-75
2022/03/30 03:03:26;;;;;;;34.00;18.10;;;;;;;6.37;100.00;95127.44;5020410;28;20439;-75
2022/03/30 03:05:53;;;;;;;33.67;19.90;;;;;;;6.30;100.00;95129.09;5019161;28;20464;-75
2022/03/30 03:08:20;;;;;;;27.30;16.67;;;;;;;6.13;100.00;95119.56;5064485;28;20463;-75
2022/03/30 03:10:48;;;;;;;28.70;16.93;;;;;;;6.10;100.00;95110.47;5017834;28;20523;-75
2022/03/30 03:13:16;;;;;;;27.53;14.60;;;;;;;6.22;100.00;95123.63;5021437;28;20483;-75
2022/03/30 03:15:44;;;;;;;30.63;17.50;;;;;;;6.31;100.00;95120.88;5041167;28;20473;-75
2022/03/30 03:18:18;;;;;;;25.77;15.60;;;;;;;6.21;100.00;95097.69;5022545;28;20535;-75
2022/03/30 03:20:46;;;;;;;30.17;16.90;;;;;;;6.36;100.00;95118.03;5017820;28;20588;-75
2022/03/30 03:23:14;;;;;;;26.53;17.03;;;;;;;5.95;100.00;95071.00;5019293;28;20537;-75
2022/03/30 03:25:41;;;;;;;33.07;17.00;;;;;;;5.82;100.00;95099.06;5025785;28;20450;-75
2022/03/30 03:28:09;;;;;;;30.80;16.77;;;;;;;5.92;100.00;95109.94;5023169;28;20822;-75
2022/03/30 03:30:37;;;;;;;29.10;16.10;;;;;;;5.91;100.00;95115.50;5017567;28;20503;-75
2022/03/30 03:33:05;;;;;;;26.97;15.43;;;;;;;5.61;100.00;95084.19;5018336;28;20437;-75
2022/03/30 03:35:33;;;;;;;33.37;18.90;;;;;;;5.90;100.00;95109.50;5018825;28;20451;-75
2022/03/30 03:38:00;;;;;;;27.03;16.80;;;;;;;5.84;100.00;95084.53;5017545;28;20452;-75
2022/03/30 03:40:30;;;;;;;25.50;16.80;;;;;;;6.01;100.00;95101.97;5021388;28;20515;-75
2022/03/30 03:42:58;;;;;;;24.13;15.77;;;;;;;6.03;100.00;95105.03;5031334;28;20436;-75
2022/03/30 03:45:26;;;;;;;31.23;17.13;;;;;;;6.11;100.00;95106.00;5019917;28;20450;-74
2022/03/30 03:47:53;;;;;;;35.07;19.40;;;;;;;6.07;100.00;95110.38;5017173;28;20456;-74
2022/03/30 03:50:20;;;;;;;30.50;15.33;;;;;;;6.01;100.00;95101.97;5006094;28;20480;-73
2022/03/30 03:52:47;;;;;;;29.87;17.43;;;;;;;5.98;100.00;95079.00;4999586;28;20504;-74
2022/03/30 03:55:20;;;;;;;33.30;19.17;;;;;;;6.20;100.00;95099.56;5030165;28;20464;-74
2022/03/30 03:57:47;;;;;;;25.40;15.83;;;;;;;6.19;100.00;95082.28;5018568;28;20436;-73
2022/03/30 04:00:14;;;;;;;31.67;19.23;;;;;;;6.13;100.00;95074.94;5020895;28;20910;-74
2022/03/30 04:02:41;;;;;;;29.77;17.80;;;;;;;6.21;100.00;95098.47;5000521;28;20479;-74
2022/03/30 04:05:09;;;;;;;30.30;16.97;;;;;;;6.05;100.00;95084.47;5004144;28;20926;-74
2022/03/30 04:07:38;;;;;;;31.60;17.03;;;;;;;5.95;100.00;95076.25;5056814;28;20547;-74
2022/03/30 04:10:09;;;;;;;27.83;17.10;;;;;;;6.23;100.00;95109.41;5037149;28;20489;-74
2022/03/30 04:12:38;;;;;;;35.43;19.83;;;;;;;6.19;100.00;95113.00;5018293;28;20420;-74
2022/03/30 04:15:06;;;;;;;36.57;19.90;;;;;;;6.14;100.00;95092.22;5018332;28;20502;-74
2022/03/30 04:17:33;;;;;;;30.03;19.23;;;;;;;6.06;100.00;95072.13;5023580;28;20481;-74
2022/03/30 04:20:00;;;;;;;33.17;18.97;;;;;;;6.32;100.00;95109.28;5026719;28;20463;-74
2022/03/30 04:22:27;;;;;;;25.33;15.90;;;;;;;6.30;100.00;95103.63;5024896;28;20460;-74
2022/03/30 04:24:54;;;;;;;34.00;16.53;;;;;;;6.18;100.00;95067.63;5038566;28;20452;-74
2022/03/30 04:27:21;;;;;;;26.33;16.03;;;;;;;6.41;100.00;95112.59;5017021;28;20435;-74
2022/03/30 04:29:47;;;;;;;27.23;15.20;;;;;;;6.26;100.00;95088.84;5029771;28;21042;-76
2022/03/30 04:32:14;;;;;;;27.50;16.20;;;;;;;6.05;100.00;95058.25;5015772;28;20557;-74
2022/03/30 04:34:41;;;;;;;26.63;15.33;;;;;;;6.24;100.00;95091.78;5010089;28;20440;-73
2022/03/30 04:37:08;;;;;;;24.57;15.70;;;;;;;6.50;100.00;95096.69;5023145;28;20523;-73
2022/03/30 04:39:34;;;;;;;21.27;14.57;;;;;;;6.30;100.00;95066.88;5039448;28;20479;-74
2022/03/30 04:42:01;;;;;;;23.23;15.40;;;;;;;6.41;100.00;95094.22;5022987;28;20532;-74
2022/03/30 04:44:28;;;;;;;27.03;15.23;;;;;;;6.01;100.00;95038.22;5024524;28;20528;-73
2022/03/30 04:46:54;;;;;;;26.50;15.77;;;;;;;6.00;100.00;95028.81;5035944;28;21002;-74
2022/03/30 04:49:21;;;;;;;31.77;16.30;;;;;;;6.21;100.00;95058.34;5016751;28;20447;-73
2022/03/30 04:51:48;;;;;;;21.27;15.10;;;;;;;6.32;100.00;95084.91;5022640;28;20448;-74
2022/03/30 04:54:17;;;;;;;23.63;15.27;;;;;;;6.31;100.00;95081.53;4996888;28;20545;-73
2022/03/30 04:56:45;;;;;;;27.40;15.67;;;;;;;6.32;100.00;95077.81;5022355;28;20472;-73
2022/03/30 04:59:12;;;;;;;23.27;15.50;;;;;;;6.07;100.00;95042.16;5039299;28;20448;-73
2022/03/30 05:01:39;;;;;;;25.10;16.80;;;;;;;6.23;100.00;95058.78;5017511;28;20444;-73
2022/03/30 05:04:06;;;;;;;28.70;16.50;;;;;;;6.12;100.00;95047.19;4999821;28;20949;-73
2022/03/30 05:06:33;;;;;;;21.40;14.87;;;;;;;6.10;100.00;95052.00;5022797;28;21247;-73
2022/03/30 05:09:00;;;;;;;24.43;16.60;;;;;;;6.02;100.00;95055.50;5027623;28;20783;-73
2022/03/30 05:11:26;;;;;;;25.53;15.90;;;;;;;6.02;100.00;95068.63;5037994;28;21187;-74
2022/03/30 05:13:53;;;;;;;23.33;15.80;;;;;;;5.84;100.00;95037.31;5020290;28;20548;-74
2022/03/30 05:16:19;;;;;;;29.37;17.83;;;;;;;6.01;100.00;95054.75;5025203;28;20593;-74
2022/03/30 05:18:46;;;;;;;26.83;15.90;;;;;;;5.94;100.00;95041.41;5030091;28;20445;-74
2022/03/30 05:21:13;;;;;;;21.97;14.83;;;;;;;6.02;100.00;95056.28;4997631;28;20774;-74
2022/03/30 05:23:39;;;;;;;26.13;16.57;;;;;;;5.97;100.00;95043.38;5030246;28;20503;-74
2022/03/30 05:26:06;;;;;;;23.73;16.30;;;;;;;5.90;100.00;95058.91;5014577;28;20519;-74
2022/03/30 05:28:33;;;;;;;29.27;15.50;;;;;;;5.77;100.00;95028.47;5015005;28;20421;-74
2022/03/30 05:31:00;;;;;;;35.47;16.40;;;;;;;6.08;100.00;95064.69;5031230;28;20565;-74
2022/03/30 05:33:27;;;;;;;27.00;17.57;;;;;;;5.97;100.00;95053.84;5030141;28;20444;-74
2022/03/30 05:35:53;;;;;;;25.43;14.97;;;;;;;6.20;100.00;95051.56;5013227;28;20922;-74
2022/03/30 05:38:20;;;;;;;25.27;15.67;;;;;;;6.21;100.00;95032.88;5014716;28;21124;-74
2022/03/30 05:40:47;;;;;;;25.80;15.70;;;;;;;6.17;100.00;95046.97;5013352;28;20468;-73
2022/03/30 05:43:13;;;;;;;26.70;16.60;;;;;;;6.40;100.00;95052.50;5013267;28;20436;-74
2022/03/30 05:45:40;;;;;;;37.27;17.27;;;;;;;6.20;100.00;95038.44;5013354;28;20900;-74
2022/03/30 05:48:07;;;;;;;22.67;15.60;;;;;;;6.06;100.00;95033.53;5029670;28;20949;-74
2022/03/30 05:50:34;;;;;;;24.90;16.80;;;;;;;6.14;100.00;95040.53;5029515;28;20468;-74
2022/03/30 05:53:01;;;;;;;26.27;15.90;;;;;;;5.51;100.00;94969.25;5029605;28;20844;-73
2022/03/30 05:55:29;;;;;;;31.60;16.60;;;;;;;6.00;100.00;95029.59;5012952;28;20514;-74
2022/03/30 05:57:55;;;;;;;30.53;17.80;;;;;;;5.86;100.00;95016.75;5014381;28;20455;-74
2022/03/30 06:00:22;;;;;;;28.60;18.20;;;;;;;5.91;100.00;95036.81;5014361;28;20467;-74
2022/03/30 06:02:49;;;;;;;30.73;19.40;;;;;;;5.89;100.00;95037.13;5013080;28;20937;-74
2022/03/30 06:05:16;;;;;;;30.87;19.40;;;;;;;5.68;100.00;94998.97;5029378;28;20468;-74
2022/03/30 06:07:43;;;;;;;25.60;17.90;;;;;;;5.88;100.00;95022.47;5029363;28;20433;-74
2022/03/30 06:10:10;;;;;;;35.97;18.97;;;;;;;5.85;100.00;94999.50;5012778;28;20469;-74
2022/03/30 06:12:37;;;;;;;28.10;17.20;;;;;;;6.02;100.00;95027.41;5016514;28;21016;-74
2022/03/30 06:15:04;;;;;;;29.63;18.27;;;;;;;6.06;100.00;95019.66;5045834;28;20475;-74
2022/03/30 06:17:33;;;;;;;31.43;17.87;;;;;;;5.99;100.00;94993.97;5012934;28;20957;-74
2022/03/30 06:20:03;;;;;;;28.17;17.30;;;;;;;6.00;100.00;94984.22;5046063;28;20467;-74
2022/03/30 06:22:30;;;;;;;29.17;19.47;;;;;;;6.15;100.00;95020.31;5013121;28;21001;-74
2022/03/30 06:24:59;;;;;;;26.57;18.00;;;;;;;6.36;100.00;95026.16;5024000;28;20431;-73
2022/03/30 06:27:26;;;;;;;40.27;19.50;;;;;;;6.01;100.00;94993.63;5029014;28;20426;-73
2022/03/30 06:29:53;;;;;;;29.27;18.50;;;;;;;6.24;100.00;95015.69;5044276;28;20519;-73
2022/03/30 06:32:20;;;;;;;32.67;18.30;;;;;;;6.25;100.00;94995.47;5019176;28;20433;-74
2022/03/30 06:34:46;;;;;;;32.93;17.70;;;;;;;6.22;100.00;94989.00;5029474;28;20448;-74
2022/03/30 06:37:13;;;;;;;26.17;18.07;;;;;;;6.52;100.00;95015.75;5012839;28;21035;-74
2022/03/30 06:39:40;;;;;;;35.73;20.00;;;;;;;6.41;100.00;94973.47;5029041;28;20544;-74
2022/03/30 06:42:09;;;;;;;27.40;16.87;;;;;;;6.58;100.00;95011.81;5012742;28;20441;-74
2022/03/30 06:44:37;;;;;;;26.53;16.73;;;;;;;6.36;100.00;94986.03;5028756;28;20441;-74
2022/03/30 06:47:04;;;;;;;28.70;19.03;;;;;;;6.62;100.00;95015.28;5028361;28;20465;-74
2022/03/30 06:49:31;;;;;;;27.67;16.43;;;;;;;6.52;100.00;95011.25;5045081;28;20444;-74
2022/03/30 06:51:58;;;;;;;30.07;17.20;;;;;;;6.40;100.00;94992.91;5011946;28;20583;-73
2022/03/30 06:54:25;;;;;;;35.53;19.20;;;;;;;6.41;100.00;94991.03;5028433;28;20476;-73
2022/03/30 06:56:52;;;;;;;28.20;16.57;;;;;;;6.46;100.00;94982.97;5011995;28;21056;-73
2022/03/30 06:59:18;;;;;;;34.27;16.90;;;;;;;6.75;100.00;95008.91;5011887;28;20533;-73
2022/03/30 07:01:46;;;;;;;25.30;16.50;;;;;;;6.75;100.00;94998.41;5028405;28;20453;-73
2022/03/30 07:04:13;;;;;;;25.40;18.00;;;;;;;6.79;100.00;95004.50;5012189;28;20804;-73
2022/03/30 07:10:14;;;;;;;27.97;16.30;;;;;;;7.02;100.00;95007.38;5011911;28;20465;-73
2022/03/30 07:12:12;;;;;;;28.87;17.13;;;;;;;6.68;100.00;94958.06;5044744;28;20910;-73
2022/03/30 07:14:38;;;;;;;33.87;18.53;;;;;;;6.62;100.00;94962.00;5011645;28;20445;-73
2022/03/30 07:17:05;;;;;;;29.13;17.43;;;;;;;6.55;100.00;94965.22;5044500;28;20547;-73
2022/03/30 07:19:32;;;;;;;24.40;16.60;;;;;;;6.86;100.00;94977.69;5011592;28;20976;-72
2022/03/30 07:21:58;;;;;;;30.20;18.10;;;;;;;6.74;100.00;94978.47;5011505;28;20460;-73
2022/03/30 07:24:25;;;;;;;27.10;16.93;;;;;;;6.52;100.00;94945.63;5011731;28;20520;-73
2022/03/30 07:26:51;;;;;;;24.57;16.60;;;;;;;6.77;100.00;94969.94;5028015;28;20547;-73
2022/03/30 07:29:18;;;;;;;30.03;20.67;;;;;;;6.95;100.00;94975.66;5011430;28;20809;-73
2022/03/30 07:31:45;;;;;;;23.50;16.20;;;;;;;6.86;100.00;94964.53;5027147;28;20579;-73
2022/03/30 07:34:14;;;;;;;26.67;17.20;;;;;;;6.99;100.00;94988.91;5011285;28;20436;-73
2022/03/30 07:36:41;;;;;;;26.90;16.97;;;;;;;7.01;100.00;94984.06;5011114;28;21047;-73
2022/03/30 07:39:07;;;;;;;25.13;17.60;;;;;;;6.87;100.00;94957.41;5011140;28;20533;-73
2022/03/30 07:41:34;;;;;;;26.70;17.37;;;;;;;6.92;100.00;94968.44;5012626;28;20425;-73
2022/03/30 07:44:01;;;;;;;29.13;18.60;;;;;;;7.21;100.00;94964.69;5012613;28;20444;-73
2022/03/30 07:46:28;;;;;;;27.67;17.87;;;;;;;7.24;100.00;94963.25;5012396;28;20860;-73
2022/03/30 07:48:55;;;;;;;22.70;16.37;;;;;;;7.06;100.00;94966.19;5027519;28;20494;-73
2022/03/30 07:51:21;;;;;;;27.40;17.10;;;;;;;7.11;100.00;94981.72;5012430;28;20802;-73
2022/03/30 07:53:48;;;;;;;30.60;18.87;;;;;;;6.86;100.00;94955.91;5011308;28;20427;-73
2022/03/30 07:56:15;;;;;;;29.90;16.30;;;;;;;7.17;100.00;94987.47;5011001;28;20501;-73
2022/03/30 07:58:41;;;;;;;29.20;18.17;;;;;;;7.19;100.00;94964.25;5011068;28;20453;-73
2022/03/30 08:01:08;;;;;;;35.13;18.23;;;;;;;6.98;100.00;94959.22;5012129;28;20422;-73
2022/03/30 08:03:35;;;;;;;32.30;19.60;;;;;;;7.01;100.00;94963.03;5010982;28;20491;-73
2022/03/30 08:06:02;;;;;;;29.37;18.40;;;;;;;6.93;100.00;94959.47;5010979;28;20527;-73
2022/03/30 08:08:29;;;;;;;27.20;19.40;;;;;;;6.99;100.00;94952.09;5010674;28;20524;-73
2022/03/30 08:10:56;;;;;;;30.33;19.73;;;;;;;7.15;100.00;94960.78;5026926;28;20609;-73
2022/03/30 08:13:23;;;;;;;28.30;19.27;;;;;;;7.36;100.00;94978.94;5012185;28;20913;-73
2022/03/30 08:15:50;;;;;;;23.40;16.13;;;;;;;7.11;100.00;94962.56;5010501;28;21064;-73
2022/03/30 08:18:16;;;;;;;33.07;20.30;;;;;;;7.08;100.00;94979.78;5010449;28;20532;-73
2022/03/30 08:23:28;;;;;;;28.87;17.03;;;;;;;7.01;100.00;94961.19;5043610;28;20878;-73
2022/03/30 08:25:55;;;;;;;28.10;19.00;;;;;;;7.23;100.00;94966.97;5026790;28;20808;-73
2022/03/30 08:28:22;;;;;;;24.83;17.33;;;;;;;7.24;100.00;94953.50;5010441;28;20437;-73
2022/03/30 08:30:48;;;;;;;31.47;19.70;;;;;;;7.31;100.00;94969.44;5026555;28;20598;-73
2022/03/30 08:33:18;;;;;;;29.83;19.33;;;;;;;7.38;100.00;94974.13;5026629;28;20487;-73
2022/03/30 08:35:45;;;;;;;29.40;18.43;;;;;;;7.22;100.00;94960.19;5010245;28;20457;-73
2022/03/30 08:38:12;;;;;;;30.33;19.77;;;;;;;7.39;100.00;94970.38;5010656;28;20432;-73
2022/03/30 08:40:39;;;;;;;35.83;21.87;;;;;;;7.31;100.00;94969.44;5010241;28;20440;-73
2022/03/30 08:43:06;;;;;;;31.07;22.03;;;;;;;7.36;100.00;94963.94;5009272;28;20552;-73
2022/03/30 08:45:33;;;;;;;28.50;18.67;;;;;;;7.45;100.00;94984.03;5010169;28;20465;-73
2022/03/30 08:48:01;;;;;;;29.00;18.10;;;;;;;7.25;100.00;94976.06;5011571;28;20479;-73
2022/03/30 08:50:28;;;;;;;29.20;21.00;;;;;;;7.10;100.00;94961.78;5011424;28;20574;-74
2022/03/30 08:53:00;;;;;;;28.77;18.03;;;;;;;6.99;100.00;94955.50;5026901;28;20429;-73
2022/03/30 08:55:26;;;;;;;34.73;20.60;;;;;;;7.20;100.00;94959.75;5026670;28;20544;-74
2022/03/30 08:57:54;;;;;;;32.97;20.27;;;;;;;7.47;100.00;94974.69;5026553;28;20439;-73
2022/03/30 09:00:22;;;;;;;32.23;19.00;;;;;;;7.23;100.00;94948.59;5010226;28;20441;-73
2022/03/30 09:03:00;;;;;;;29.27;18.57;;;;;;;7.28;100.00;94962.22;5010085;28;20441;-74
2022/03/30 09:05:30;;;;;;;30.00;20.70;;;;;;;7.35;100.00;94962.41;5009940;28;20563;-75
2022/03/30 09:08:13;;;;;;;37.53;20.77;;;;;;;7.29;100.00;94963.00;5010048;28;20540;-74
2022/03/30 09:10:42;;;;;;;37.20;20.30;;;;;;;7.32;100.00;94965.69;5043186;28;20473;-74
2022/03/30 09:13:10;;;;;;;42.93;25.13;;;;;;;7.36;100.00;94963.94;5010031;28;20452;-73
2022/03/30 09:15:38;;;;;;;31.10;20.40;;;;;;;7.14;100.00;94927.72;5026046;28;20461;-74
2022/03/30 09:18:06;;;;;;;34.50;22.57;;;;;;;7.34;100.00;94947.72;5009948;28;20456;-75
2022/03/30 09:20:36;;;;;;;34.43;22.67;;;;;;;7.33;100.00;94958.56;5010031;28;20433;-74
2022/03/30 09:23:04;;;;;;;33.87;22.03;;;;;;;7.28;100.00;94962.22;5042753;28;20504;-74
2022/03/30 09:25:49;;;;;;;35.73;21.30;;;;;;;7.24;100.00;94958.75;5012206;28;20467;-74
2022/03/30 09:28:18;;;;;;;41.33;24.30;;;;;;;7.23;100.00;94956.47;5009746;28;20544;-74
2022/03/30 09:30:45;;;;;;;36.90;22.53;;;;;;;7.23;100.00;94957.22;5011386;28;20997;-74
2022/03/30 09:33:15;;;;;;;45.00;25.23;;;;;;;7.10;100.00;94927.63;5043117;28;20436;-75
2022/03/30 09:35:42;;;;;;;43.57;24.00;;;;;;;7.22;100.00;94953.09;5009774;28;20554;-75
2022/03/30 09:38:15;;;;;;;39.60;24.50;;;;;;;7.13;100.00;94928.81;5026423;28;20507;-74
2022/03/30 09:40:47;;;;;;;34.70;23.77;;;;;;;7.33;100.00;94956.72;5011342;28;20416;-75
2022/03/30 09:43:21;;;;;;;35.67;21.83;;;;;;;7.24;100.00;94942.22;5011061;28;20946;-75
2022/03/30 09:45:50;;;;;;;46.43;23.03;;;;;;;7.29;100.00;94944.59;5009868;28;20985;-75
2022/03/30 09:48:23;;;;;;;35.90;21.03;;;;;;;7.12;100.00;94922.03;5009823;28;20442;-75
2022/03/30 09:50:52;;;;;;;35.27;22.93;;;;;;;7.14;100.00;94930.34;5010878;28;20492;-75
2022/03/30 09:53:21;;;;;;;35.83;23.07;;;;;;;7.33;100.00;94937.53;5026200;28;20430;-75
2022/03/30 09:55:58;;;;;;;34.63;22.10;;;;;;;7.41;100.00;94940.00;5013128;28;20459;-75
2022/03/30 09:58:28;;;;;;;34.20;21.87;;;;;;;7.46;100.00;94940.84;5014660;28;20885;-75
2022/03/30 10:01:08;;;;;;;32.27;21.83;;;;;;;7.46;100.00;94931.09;5013058;28;20525;-76
2022/03/30 10:03:42;;;;;;;35.63;21.07;;;;;;;7.50;100.00;94929.34;5029381;28;20844;-76
2022/03/30 10:06:10;;;;;;;33.33;21.60;;;;;;;7.57;100.00;94929.47;5012924;28;20469;-76
2022/03/30 10:08:39;;;;;;;35.13;21.27;;;;;;;7.48;100.00;94923.66;5012881;28;20432;-75
2022/03/30 10:11:06;;;;;;;35.77;23.70;;;;;;;7.42;100.00;94919.75;5014217;28;20556;-75
2022/03/30 10:13:33;;;;;;;35.13;22.30;;;;;;;6.99;100.00;94881.16;5014173;28;21008;-75
2022/03/30 10:16:21;;;;;;;32.80;23.40;;;;;;;7.26;100.00;94905.84;5026709;28;20864;-75
2022/03/30 10:18:51;;;;;;;37.50;22.60;;;;;;;7.15;100.00;94905.59;5012782;28;20949;-75
2022/03/30 10:22:05;;;;;;;36.40;23.10;;;;;;;7.34;100.00;94894.38;5045812;28;20528;-75
2022/03/30 10:24:59;;;;;;;40.33;24.20;;;;;;;7.39;100.00;94904.66;5013523;28;21235;-75
2022/03/30 10:27:53;;;;;;;38.23;25.00;;;;;;;7.47;100.00;94895.06;5029281;28;20989;-75
2022/03/30 10:30:29;;;;;;;39.47;23.07;;;;;;;7.63;100.00;94893.94;5012546;28;20426;-75
2022/03/30 10:33:01;;;;;;;36.93;24.07;;;;;;;7.72;100.00;94896.38;5028943;28;20544;-75
2022/03/30 10:35:42;;;;;;;36.37;22.37;;;;;;;7.42;100.00;94819.84;5012582;28;20491;-75
2022/03/30 10:38:10;;;;;;;38.43;24.47;;;;;;;7.97;100.00;94891.66;5012543;28;20543;-75
2022/03/30 10:40:38;;;;;;;33.00;22.10;;;;;;;7.82;100.00;94864.28;5013604;28;20924;-75
2022/03/30 10:43:06;;;;;;;31.97;21.90;;;;;;;7.85;100.00;94883.88;5012391;28;20445;-75
2022/03/30 10:45:41;;;;;;;32.27;23.20;;;;;;;7.89;100.00;94884.72;5012809;28;20978;-75
2022/03/30 10:48:14;;;;;;;37.10;23.40;;;;;;;7.88;100.00;94883.19;5013397;28;20524;-75
2022/03/30 10:50:50;;;;;;;34.40;24.00;;;;;;;7.99;100.00;94876.28;5012261;28;20476;-75
2022/03/30 10:53:32;;;;;;;35.47;25.17;;;;;;;8.10;100.00;94879.13;5028469;28;20952;-75
2022/03/30 10:56:07;;;;;;;36.13;23.40;;;;;;;8.04;100.00;94875.25;5013359;28;20526;-75
2022/03/30 10:58:55;;;;;;;34.27;23.90;;;;;;;8.20;100.00;94879.34;5012288;28;20531;-75
2022/03/30 11:01:25;;;;;;;38.00;23.83;;;;;;;8.20;100.00;94874.09;5013447;28;20497;-75
2022/03/30 11:03:56;;;;;;;28.40;21.80;;;;;;;8.35;100.00;94867.25;5011880;28;20902;-75
2022/03/30 11:06:24;;;;;;;30.90;22.17;;;;;;;8.28;100.00;94867.88;5012360;28;20814;-75
2022/03/30 11:08:55;;;;;;;33.03;22.93;;;;;;;8.44;100.00;94869.69;5011849;28;20953;-75
2022/03/30 11:11:39;;;;;;;29.70;22.83;;;;;;;8.16;100.00;94857.47;5011769;28;20465;-75
2022/03/30 11:14:39;;;;;;;37.80;22.90;;;;;;;8.07;100.00;94853.50;5011764;28;20430;-75
2022/03/30 11:17:10;;;;;;;33.67;23.17;;;;;;;8.11;100.00;94857.72;5011640;28;20552;-76
2022/03/30 11:19:55;;;;;;;41.90;31.90;;;;;;;8.28;100.00;94854.69;5013107;28;20428;-76
2022/03/30 11:22:32;;;;;;;32.40;23.93;;;;;;;8.44;100.00;94849.38;5013023;28;20769;-75
2022/03/30 11:25:13;;;;;;;37.37;23.20;;;;;;;8.36;100.00;94849.56;5011705;28;20410;-75
2022/03/30 11:27:41;;;;;;;30.83;21.50;;;;;;;8.11;100.00;94839.31;5011604;28;20434;-75
2022/03/30 11:30:10;;;;;;;34.03;23.20;;;;;;;7.79;100.00;94819.50;5011465;28;20439;-75
2022/03/30 11:32:52;;;;;;;32.67;22.43;;;;;;;8.00;100.00;94851.47;5011270;28;20497;-75